New Listings | Alphabetical Listings | Market Rank Listings | PPM Schedule | Arbitrends Schedule | Menu

Nielsen Audio Ratings

Market Rank: 1-50 | 51-100 | 101-150 | 151-200 | 201-250 | 251-300

Rank Market Posted Survey 12+
Population
69 Albuquerque NM 08-29-15 4S 751,700
70 Allentown-Bethlehem PA 08-29-15 4S 714,900
159 Asheville NC 08-29-15 2S 290,600
9 Atlanta GA 08-29-15 PPM 4,549,700
35 Austin TX 08-29-15 PPM 1,605,600
81 Baton Rouge LA 08-29-15 4S 609,500
254 Battle Creek MI 08-29-15 2A 114,300
273 Beckley WV 08-29-15 2A 67,400
241 Billings MT 08-29-15 2A 132,600
147 Biloxi-Gulfport-Pascagoula MS 08-29-15 2S 324,700
187 Binghamton NY 08-29-15 2S 215,000
60 Birmingham AL 08-29-15 4S 911,400
230 Bloomington IL 08-29-15 2S 151,700
10 Boston MA 08-29-15 PPM 4,192,800
57 Buffalo-Niagara Falls NY 08-29-15 4S 985,900
191 Cape Cod MA 08-29-15 2A 208,500
205 Cedar Rapids IA 08-29-15 2S 183,700
206 Charlottesville, VA 08-29-15 B 2C
3 Chicago IL 08-29-15 PPM 7,939,500
30 Cincinnati OH 08-29-15 PPM 1,795,300
37 Columbus OH 08-29-15 PPM 1,593,900
5 Dallas-Ft. Worth TX 08-29-15 PPM 5,633,600
94 Daytona Beach FL 08-29-15 2S 538,200
266 Decatur IL 08-29-15 2A 92,300
18 Denver-Boulder CO 08-29-15 PPM 2,546,800
190 Dothan AL 08-29-15 2A 210,300
211 Duluth-Superior MN-WI 08-29-15 2S 179,600
236 Eau Claire WI 08-29-15 2A 142,500
224 Elmira-Corning NY 08-29-15 2A 159,800

151 Eugene-Springfield OR 08-29-15 2S 315,400
201 Fargo-Moorhead ND-MN 08-29-15 2S 196,900
114 Fort Collins-Greeley CO 08-29-15 2A 447,600
113 Fort Wayne IN 08-29-15 2S 448,600
67 Fresno CA 08-29-15 4S 783,900
61 Ft. Myers-Naples-Marco Island FL 08-29-15 2S 899,900
272 Grand Forks ND 08-29-15 2A 79,500
252 Grand Island-Kearney-Hastings NE 08-29-15 2A 117,500
248 Grand Junction CO 08-29-15 2A 125,800
46 Greensboro-Winston-Salem-High Point NC 08-29-15 PPM 1,249,100
82 Harrisburg-Lebanon-Carlisle PA 08-29-15 4S 599,600
232 Hilton Head SC 08-29-15 2C 151,400
269 Hot Springs AR 08-29-15 2A 84,300
126 Jackson MS 08-29-15 4S 412,600
50 Jacksonville FL 08-29-15 PPM 1,203,900
108 Johnson City-Kingsport TN 08-29-15 4S 470,200
227 Jonesboro AR 08-29-15 2A 157,300
34 Kansas City MO 08-29-15 PPM 1,687,000
71 Knoxville TN 08-29-15 4S 704,900
220 La Crosse WI 08-29-15 2A 164,800
95 Lakeland-Winter Haven FL 08-29-15 2S 537,900
189 Laredo TX 08-29-15 2A 210,600
214 Las Cruces NM 08-29-15 2A 176,300
32 Las Vegas NV 08-29-15 PPM 1,733,000
102 Lexington-Fayette KY 08-29-15 2S 496,700
228 Lima OH 08-29-15 2A 156,200
169 Lincoln NE 08-29-15 2S 254,000
83 Little Rock AR 08-29-15 4S 593,100
2 Los Angeles CA 08-29-15 PPM 11,271,300
54 Louisville KY 08-29-15 4S 1,022,800

172 Lubbock TX 08-29-15 2S 247,300
100 Madison WI 08-29-15 4S 514,200
200 Manchester NH 08-29-15 2S 199,200
96 Mobile AL 08-29-15 4S 521,000
242 Monroe LA 08-29-15 2A 130,400
84 Monterey-Salinas CA 08-29-15 4S 592,300
218 Muncie-Marion IN 08-29-15 2A 172,400
45 Nashville TN 08-29-15 PPM 1,369,200
20 Nassau-Suffolk NY 08-29-15 PPM 2,464,300
47 New Orleans LA 08-29-15 4S 1,234,600
43 Norfolk-VA Beach-Newport News VA 08-29-15 PPM 1,397,200
223 Olean NY 08-29-15 2A 160,500
231 Panama City FL 08-29-15 2A 151,500
23 Portland OR 08-29-15 PPM 2,212,100
42 Raleigh-Durham NC 08-29-15 PPM 1,467,500
133 Reading PA 08-29-15 2A 353,300
229 Redding CA 08-29-15 2A 154,900
55 Richmond VA 08-29-15 4S 1,015,900
25 Riverside-San Bernardino CA 08-29-15 PPM 2,010,900
222 Rochester MN 08-29-15 2A 160,900
58 Rochester NY 08-29-15 4S 967,000
160 Rockford IL 08-29-15 2S 288,400
28 Sacramento CA 08-29-15 PPM 1,928,300
196 Salina-Manhattan KS 08-29-15 2A 203,700
140 Salisbury-Ocean City MD 08-29-15 2S 338,800
29 Salt Lake City UT 08-29-15 PPM 1,824,300
265 San Angelo TX 08-29-15 2A 97,200
27 San Antonio TX 08-29-15 PPM 1,939,800
36 San Jose CA 08-29-15 PPM 1,596,400
174 San Luis Obispo CA 08-29-15 2A 244,300

208 Santa Barbara CA 08-29-15 2A 180,600
13 Seattle-Tacoma WA 08-29-15 PPM 3,638,000
264 Sheboygan WI 08-29-15 2A 98,000
262 Sioux City IA 08-29-15 2A 100,700
247 Sussex NJ 08-29-15 2A 126,200
212 Terre Haute IN 08-29-15 2S 177,200
98 Toledo OH 08-29-15 4S 517,300
150 Trenton NJ 08-29-15 2S 320,200
62 Tucson AZ 08-29-15 4S 855,700
66 Tulsa OK 08-29-15 4S 799,600
144 Tyler-Longview TX 08-29-15 2S 329,800
115 Victor Valley 08-29-15 2S 444,600
7 Washington DC 08-29-15 PPM 4,793,400
239 Waterloo-Cedar Falls IA 08-29-15 2A 135,500
263 Watertown NY 08-29-15 2A 98,500
49 West Palm Beach FL 08-29-15 PPM 1,217,200
246 Wheeling WV 08-29-15 2S 126,900
261 Williamsport PA 08-29-15 2A 101,200
110 Chattanooga TN 08-20-15 4S 469,700
105 Huntsville AL 08-20-15 4S 479,400
134 Shreveport LA 08-20-15 4S 350,000
90 Colorado Springs CO 08-19-15 4S 559,900
72 Des Moines IA 08-19-15 4S 696,400
93 Spokane WA 08-19-15 4S 539,700
101 Wichita KS 08-19-15 4S 500,700
86 Columbia SC 08-18-15 4S 582,800
85 Greenville-New Bern NC 08-18-15 4S 591,100
92 Springfield MA 08-18-15 4S 546,100
78 Charleston SC 08-17-15 4S 620,700
89 Syracuse 08-17-15 4S 570,700

59 Greenville-Spartanburg SC 08-11-15 4S 924,300
80 Akron OH 08-10-15 4S 612,100
48 Oklahoma City OK 08-10-15 4S 1,218,300
15 Puerto Rico 08-10-15 4S 3,125,800
260 Bismarck ND 08-06-15 2A 103,700
267 Bluefield WV 08-06-15 2A 91,600
255 Harrisonburg VA 08-06-15 2A 114,100
52 Hartford-New Britain CT 08-06-15 PPM 1,081,100
39 Indianapolis IN 08-06-15 PPM 1,496,100
270 Jackson TN 08-06-15 2A 83,500
234 Joplin MO 08-06-15 2A 145,900
51 Memphis TN 08-06-15 PPM 1,117,800
40 Milwaukee-Racine WI 08-06-15 PPM 1,491,600
44 Providence RI 08-06-15 PPM 1,396,
256 Rapid City SD 08-06-15 2A 114,000
249 Wichita Falls TX 08-06-15 2A 120,000
237 Abilene TX 08-05-15 2A 142,500
24 Charlotte-Gastonia NC 08-05-15 PPM 2,151
31 Cleveland OH 08-05-15 PPM 1,774,000
233 Columbia MO 08-05-15 2A 149,700
226 Lafayette IN 08-05-15 2S 157,400
33 Orlando FL 08-05-15 PPM 1,718,200
244 Parkersburg-Marietta WV 08-05-15 2A 127,800
26 Pittsburgh PA 08-05-15 PPM 2,009,200
21 Baltimore MD 08-04-15 PPM 2,389,300
209 Bend OR 08-04-15 2A 180,400
210 Champaign IL 08-04-15 2A 179,800
203 Chico CA 08-04-15 2A 194,200
12 Detroit MI 08-04-15 PPM 3,803,600
216 Florence SC 08-04-15 2A 174,400

207 Medford-Ashland OR 08-04-15 2A 180,900
180 Merced CA 08-04-15 2A 230,100
11 Miami-Fort Lauderdale FL 08-04-15 PPM 3,906,200
16 Minneapolis-St. Paul MN 08-04-15 PPM 2,875,600
157 Peoria IL 08-04-15 2S 308,800
14 Phoenix AZ 08-04-15 PPM 3,419,800
17 San Diego CA 08-04-15 PPM 2,755,000
154 Savannah GA 08-04-15 2S 312,600
22 St. Louis MO 08-04-15 PPM 2,328,700
19 Tampa-St. Petersburg FL 08-04-15 PPM 2,531,900
253 Texarkana TX-AR 08-04-15 2A 116,300
213 Winchester VA 08-04-15 2A 176,300
198 Yakima WA 08-04-15 2A 200,900
168 Amarillo TX 08-03-15 2A 255,000
194 Bryan-College Station TX 08-03-15 2A 207,100
179 Columbus GA 08-03-15 2S 235,200
192 Frederick MD 08-03-15 2C 207,900
6 Houston-Galveston TX 08-03-15 PPM 5,362,100
41 Middlesex-Somerset-Union 08-03-15 PPM 1,470,800
1 New York NY 08-03-15 PPM 16,157,500
171 Odessa-Midland TX 08-03-15 2A 251,700
8 Philadelphia PA 08-03-15 PPM 4,558,200
4 San Francisco CA 08-03-15 PPM 6,463,500
182 Tri-Cities WA 08-03-15 2A 226,000
195 Waco TX 08-03-15 2A 205,200
170 Anchorage AK 07-31-15 2S 253,000
188 Charleston WV 07-31-15 2S 213,700
175 Erie PA 07-31-15 2S 240,100
164 Evansville IN 07-31-15 2S 268,000
156 Flagstaff-Prescott AZ 07-31-15 2A 310,800
163 Huntington-Ashland WV 07-31-15 2S 268,800
132 Macon GA 07-31-15 2S 368,900
173 Morgantown-Clarksburg-Fairmont WV 07-31-15 2A 246,300
204 Santa Maria-Lompoc CA 07-31-15 2A 193,100
183 South Bend IN 07-31-15 2S 224,800
162 Tallahassee FL 07-31-15 2S 275,900
251 Valdosta GA 07-31-15 2A 118,800
176 Wausau-Stevens Point WI (Central Wiscons 07-31-15 2A 239,700
240 Albany GA 07-30-15 2A 134,000
153 Ann Arbor MI 07-30-15 2A 312,800
142 Beaumont-Port Arthur TX 07-30-15 2A 331,900
268 Brunswick GA 07-30-15 2A 84,700
141 Killeen-Temple TX 07-30-15 2A 335,500
243 LaSalle-Peru IL 07-30-15 2A 129,400
221 Lake Charles LA 07-30-15 2A 163,900
158 Montgomery AL 07-30-15 2S 303,200
181 New Bedford-Fall River MA 07-30-15 2C 229,000
155 Quad Cities IL 07-30-15 2S 312,300
137 Springfield MO 07-30-15 2S 346,200
139 Appleton-Oshkosh WI 07-29-15 2S 342,400

106 Corpus Christi TX 07-29-15 2S 472,100
129 Fayetteville (North West Arkansas) AR 07-29-15 2A 397,600
130 Fayetteville NC 07-29-15 2S 386,100
135 Flint MI 07-29-15 2S 348,300
186 Green Bay WI 07-29-15 2S 215,700
128 Lansing-East Lansing MI 07-29-15 2S 405,200
125 Reno NV 07-29-15 2S 418,600
143 Saginaw-Bay City-Midland MI 07-29-15 2A 331,500
131 Youngstown-Warren OH 07-29-15 2S 379,300
124 Bridgeport CT 07-28-15 2S 418,800
271 Cheyenne WY 07-28-15 2A 82,200
118 Modesto CA 07-28-15 2S 437,200
119 Morristown NJ 07-28-15 2C 434,100
122 New Haven CT 07-28-15 2S 430,200
121 Oxnard-Ventura CA 07-28-15 2S 430,400
138 Palm Springs CA 07-28-15 2S 344,500
120 Santa Rosa CA 07-28-15 2S 431,100
149 Atlantic City NJ 07-27-15 2S 320,800
109 Augusta GA 07-27-15 2S 469,800
245 Florence-Muscle Shoals AL 07-27-15 2A 127,500
103 Melbourne-Titusville-Cocoa FL 07-27-15 2S 491,600
116 Roanoke-Lynchburg VA 07-27-15 2S 442,600
79 Wilmington DE 07-27-15 2S 616,300
117 Worcester MA 07-27-15 2S 441,900
97 Boise ID 07-24-15 2S 520,500
99 Fort Pierce-Stuart FL 07-24-15 2S 515,500
185 Fort Walton Beach FL 07-24-15 2A 222,400
127 Pensacola FL 07-24-15 2S 406,700
238 Pueblo CO 07-24-15 2S 138,200
202 Topeka KS 07-24-15 2S 196,600

250 Twin Falls-Sun Valley, ID 07-24-15 H 2C
88 Gainesville-Ocala FL 07-23-15 2S 573,300
87 Stockton CA 07-23-15 2S 581,200
136 Canton OH 07-22-15 2S 347,600
166 Hagerstown-Chambersburg MD 07-22-15 2A 258,800
112 Lancaster PA 07-22-15 2S 448,800
152 Myrtle Beach SC 07-22-15 2A 313,300
178 New London CT 07-22-15 2A 238,700
77 Bakersfield CA 07-21-15 4S 636,300
75 Omaha-Council Bluffs NE 07-21-15 4S 684,800
104 Visalia-Tulare-Hanford CA 07-21-15 2S 488,100
111 York PA 07-21-15 4S 465,400
199 Danbury CT 07-20-15 2A 199,500
74 El Paso TX 07-20-15 4S 689,900
161 Ft. Smith AR 07-20-15 2A 282,500
63 Honolulu HI 07-20-15 4S 849,000
184 Kalamazoo MI 07-20-15 2S 222,500
56 McAllen-Brownsville TX 07-20-15 2S 993,000
235 Muskegon MI 07-20-15 2A 144,500
76 Sarasota-Bradenton FL 07-20-15 2S 663,900
148 Stamford-Norwalk CT 07-20-15 2A 322,600
73 Wilkes Barre-Scranton PA 07-20-15 4S 693,400
259 Augusta-Waterville ME 07-17-15 2A 105,500
219 Bangor ME 07-17-15 2S 168,400
145 Burlington-Plattsburgh VT-NY 07-17-15 2S 328,100
177 Concord (Lakes Region) 07-17-15 2S 239,400
64 Dayton OH 07-17-15 4S 837,500
146 Fredericksburg VA 07-17-15 2S 325,000
68 Grand Rapids MI 07-17-15 4S 757,900
38 Hudson Valley 07-17-15 2S 1,504,000

225 Lebanon-Hanover-White River Junction, NH 07-17-15 2A 157,800
258 Montpelier-Barre-St. Johnsbury VT 07-17-15 2S 108,000
91 Portland ME 07-17-15 2S 548,500
123 Portsmouth-Dover NH 07-17-15 2S 422,200
165 Poughkeepsie NY 07-17-15 2A 259,000
167 Utica-Rome NY 07-17-15 2S 256,600
65 Albany-Schenectady-Troy NY 07-16-15 4S 810,600
107 Lafayette LA 07-16-15 2S 471,800
215 Tuscaloosa AL 07-16-15 2A 175,000
217 Laurel-Hattiesburg MS 07-15-15 2A 172,700
53 Monmouth-Ocean NJ 07-14-15 4S 1,039,100
193 Tupelo MS 01-07-15 2A 207,300
197 Traverse City-Petoskey MI 01-24-13 2A 201,400
257 Altoona PA 08-08-12 2S 108,500

Survey Key:
PPM - Portable People Meter
4S - Diary Standard Continuous Measurement
2S - Diary Standard Measurement
2C - Diary Condensed Measurement
2A - Diary 2-book Average

Ratings profiles are Copyright © 2015 Nielsen Audio. May not be quoted or reproduced without the prior written permission of Nielsen Audio.

Return to Menu
Copyright © 1989-2015 RADIO ONLINE ®

Sponsored Links
Radio Station Data For Less
Radio station data for all of the rated markets. Top 400 Metros-Over 12,000 AM/FM/HD $299 includes 1 year free updates.
Radio Station Data For Less
Radio station data for all of the rated markets. Top 400 Metros-Over 12,000 AM/FM/HD $299 includes 1 year free updates.